Time;durP1;ratioP1;P1;durP2;ratioP2;P2;SDS_P1;SDS_P2;PMS_P1;PMS_P2;Temp;Humidity;BMP_temperature;BMP_pressure;BME280_temperature;BME280_humidity;BME280_pressure;Samples;Min_cycle;Max_cycle;Signal;HPM_P1;HPM_P2
2021/07/19 00:01:21;;;;;;;;;11.33;7.00;;;;;;;;3543172;39;111940;-80
2021/07/19 00:03:48;;;;;;;;;7.33;7.33;;;;;;;;3545830;39;114391;-80
2021/07/19 00:06:14;;;;;;;;;6.67;6.00;;;;;;;;3543648;39;111831;-80
2021/07/19 00:08:41;;;;;;;;;7.67;7.00;;;;;;;;3541801;39;113297;-80
2021/07/19 00:11:07;;;;;;;;;10.33;8.00;;;;;;;;3543103;39;114317;-80
2021/07/19 00:13:35;;;;;;;;;9.33;9.00;;;;;;;;3543643;39;112043;-80
2021/07/19 00:16:01;;;;;;;;;13.33;9.00;;;;;;;;3543559;39;113273;-81
2021/07/19 00:18:29;;;;;;;;;7.00;7.00;;;;;;;;3543216;39;113881;-81
2021/07/19 00:20:57;;;;;;;;;7.00;7.00;;;;;;;;3543464;39;111921;-81
2021/07/19 00:23:24;;;;;;;;;10.00;9.00;;;;;;;;3543657;39;113374;-81
2021/07/19 00:25:51;;;;;;;;;10.00;8.00;;;;;;;;3545547;39;113664;-80
2021/07/19 00:28:18;;;;;;;;;7.00;7.00;;;;;;;;3543742;39;112307;-81
2021/07/19 00:30:44;;;;;;;;;7.00;6.00;;;;;;;;3543449;39;113834;-85
2021/07/19 00:33:11;;;;;;;;;9.33;7.67;;;;;;;;3541897;39;111774;-83
2021/07/19 00:35:40;;;;;;;;;7.67;7.67;;;;;;;;3543613;39;112967;-83
2021/07/19 00:38:06;;;;;;;;;10.67;7.67;;;;;;;;3543128;39;113964;-83
2021/07/19 00:40:35;;;;;;;;;7.00;7.00;;;;;;;;3543680;39;112307;-83
2021/07/19 00:43:02;;;;;;;;;11.00;9.33;;;;;;;;3543473;39;113293;-81
2021/07/19 00:45:29;;;;;;;;;8.00;7.00;;;;;;;;3542233;39;112958;-81
2021/07/19 00:47:56;;;;;;;;;8.00;8.00;;;;;;;;3546075;39;111856;-81
2021/07/19 00:50:24;;;;;;;;;7.00;7.00;;;;;;;;3540938;39;113290;-82
2021/07/19 00:52:57;;;;;;;;;7.33;7.33;;;;;;;;3543133;39;112505;-82
2021/07/19 00:55:26;;;;;;;;;10.00;8.00;;;;;;;;3543586;39;113312;-81
2021/07/19 00:57:55;;;;;;;;;8.00;8.00;;;;;;;;3542811;39;114269;-81
2021/07/19 01:00:22;;;;;;;;;9.00;7.67;;;;;;;;3543335;39;112161;-81
2021/07/19 01:02:49;;;;;;;;;10.00;9.00;;;;;;;;3543201;39;113291;-81
2021/07/19 01:05:16;;;;;;;;;9.00;8.00;;;;;;;;3542035;39;113018;-82
2021/07/19 01:07:44;;;;;;;;;7.33;7.00;;;;;;;;3543240;39;112172;-81
2021/07/19 01:10:16;;;;;;;;;10.00;9.33;;;;;;;;3543507;39;113281;-81
2021/07/19 01:12:44;;;;;;;;;9.33;9.00;;;;;;;;3542111;39;111818;-81
2021/07/19 01:15:11;;;;;;;;;10.67;10.67;;;;;;;;3542647;39;113257;-81
2021/07/19 01:17:37;;;;;;;;;13.33;12.00;;;;;;;;3543693;39;113331;-80
2021/07/19 01:20:05;;;;;;;;;10.67;9.00;;;;;;;;3544288;39;112363;-80
2021/07/19 01:22:52;;;;;;;;;9.00;7.33;;;;;;;;3544614;39;113328;-81
2021/07/19 01:25:28;;;;;;;;;12.00;9.00;;;;;;;;3542497;39;113948;-81
2021/07/19 01:28:04;;;;;;;;;9.67;9.33;;;;;;;;3544368;39;111890;-81
2021/07/19 01:30:33;;;;;;;;;12.33;9.33;;;;;;;;3546613;39;114537;-81
2021/07/19 01:33:01;;;;;;;;;7.33;7.00;;;;;;;;3544270;39;111929;-81
2021/07/19 01:35:28;;;;;;;;;9.33;8.00;;;;;;;;3544413;39;114556;-81
2021/07/19 01:37:55;;;;;;;;;9.00;8.00;;;;;;;;3543922;39;114734;-81
2021/07/19 01:40:23;;;;;;;;;10.67;8.00;;;;;;;;3544356;39;112256;-82
2021/07/19 01:42:50;;;;;;;;;8.00;6.67;;;;;;;;3544467;39;113464;-82
2021/07/19 01:45:17;;;;;;;;;9.00;8.00;;;;;;;;3543974;39;113941;-75
2021/07/19 01:47:47;;;;;;;;;11.33;9.67;;;;;;;;3544299;39;111906;-81
2021/07/19 01:50:14;;;;;;;;;8.67;7.67;;;;;;;;3542627;39;113655;-87
2021/07/19 01:52:41;;;;;;;;;9.75;9.50;;;;;;;;3546688;39;114650;-84
2021/07/19 01:55:08;;;;;;;;;11.00;8.00;;;;;;;;3544146;39;113338;-84
2021/07/19 01:57:34;;;;;;;;;8.67;8.67;;;;;;;;3543892;39;114103;-86
2021/07/19 02:00:02;;;;;;;;;9.00;9.00;;;;;;;;3544360;39;112051;-86
2021/07/19 02:02:29;;;;;;;;;12.00;8.33;;;;;;;;3544375;39;113380;-85
2021/07/19 02:04:57;;;;;;;;;9.67;8.33;;;;;;;;3543913;39;113911;-83
2021/07/19 02:07:25;;;;;;;;;9.00;8.33;;;;;;;;3544554;39;111884;-82
2021/07/19 02:09:52;;;;;;;;;8.00;7.33;;;;;;;;3544230;39;113144;-82
2021/07/19 02:12:19;;;;;;;;;11.33;10.00;;;;;;;;3544113;39;113904;-82
2021/07/19 02:14:47;;;;;;;;;11.33;11.33;;;;;;;;3544951;39;112113;-84
2021/07/19 02:17:14;;;;;;;;;8.00;8.00;;;;;;;;3541977;39;114246;-84
2021/07/19 02:19:42;;;;;;;;;13.25;11.50;;;;;;;;3544181;39;111960;-81
2021/07/19 02:22:11;;;;;;;;;11.67;11.00;;;;;;;;3544292;39;113743;-84
2021/07/19 02:24:38;;;;;;;;;9.00;9.00;;;;;;;;3543660;39;113900;-83
2021/07/19 02:27:07;;;;;;;;;9.00;9.00;;;;;;;;3544097;39;112260;-82
2021/07/19 02:29:34;;;;;;;;;9.00;9.00;;;;;;;;3544264;39;113280;-83
2021/07/19 02:32:01;;;;;;;;;8.50;8.50;;;;;;;;3543862;39;114241;-83
2021/07/19 02:34:28;;;;;;;;;11.33;8.00;;;;;;;;3544258;39;111736;-86
2021/07/19 02:36:55;;;;;;;;;6.00;6.00;;;;;;;;3546370;39;113255;-84
2021/07/19 02:39:24;;;;;;;;;9.75;9.00;;;;;;;;3544706;39;112091;-86
2021/07/19 02:41:52;;;;;;;;;9.00;8.00;;;;;;;;3545188;39;113861;-84
2021/07/19 02:44:18;;;;;;;;;10.00;7.00;;;;;;;;3545457;39;114006;-86
2021/07/19 02:46:45;;;;;;;;;9.67;9.67;;;;;;;;3544260;39;111787;-87
2021/07/19 02:49:12;;;;;;;;;8.00;8.00;;;;;;;;3544345;39;114023;-86
2021/07/19 02:51:40;;;;;;;;;7.00;6.33;;;;;;;;3542073;39;114174;-85
2021/07/19 02:54:08;;;;;;;;;7.33;7.33;;;;;;;;3544393;39;112012;-85
2021/07/19 02:56:36;;;;;;;;;7.00;7.00;;;;;;;;3544149;39;113734;-86
2021/07/19 02:59:04;;;;;;;;;7.67;7.00;;;;;;;;3546239;39;113922;-83
2021/07/19 03:01:33;;;;;;;;;7.00;6.00;;;;;;;;3544125;39;113040;-83
2021/07/19 03:04:01;;;;;;;;;7.00;6.67;;;;;;;;3543498;39;113963;-82
2021/07/19 03:06:31;;;;;;;;;5.67;5.00;;;;;;;;3544053;39;111850;-82
2021/07/19 03:08:58;;;;;;;;;7.00;7.00;;;;;;;;3544088;39;113309;-82
2021/07/19 03:11:27;;;;;;;;;6.33;5.00;;;;;;;;3543499;39;113867;-83
2021/07/19 03:13:56;;;;;;;;;6.67;6.67;;;;;;;;3544000;39;112017;-82
2021/07/19 03:16:26;;;;;;;;;9.00;6.33;;;;;;;;3544155;39;113246;-81
2021/07/19 03:18:54;;;;;;;;;6.67;6.67;;;;;;;;3543645;39;114290;-86
2021/07/19 03:21:21;;;;;;;;;5.67;5.67;;;;;;;;3546846;39;111990;-86
2021/07/19 03:23:48;;;;;;;;;6.00;6.00;;;;;;;;3543749;39;114412;-85
2021/07/19 03:26:15;;;;;;;;;8.00;6.00;;;;;;;;3544321;39;111856;-87
2021/07/19 03:28:42;;;;;;;;;8.00;7.33;;;;;;;;3544831;39;113903;-84
2021/07/19 03:31:10;;;;;;;;;7.33;6.00;;;;;;;;3541346;39;113382;-83
2021/07/19 03:33:41;;;;;;;;;6.67;6.67;;;;;;;;3545358;39;111873;-84
2021/07/19 03:36:08;;;;;;;;;6.00;5.00;;;;;;;;3544049;39;113501;-83
2021/07/19 03:38:35;;;;;;;;;6.00;6.00;;;;;;;;3544296;39;114580;-85
2021/07/19 03:41:02;;;;;;;;;7.00;6.33;;;;;;;;3548531;39;112188;-87
2021/07/19 03:43:30;;;;;;;;;6.67;6.00;;;;;;;;3545910;39;114282;-86
2021/07/19 03:45:57;;;;;;;;;8.00;5.00;;;;;;;;3544811;39;111750;-87
2021/07/19 03:48:26;;;;;;;;;7.75;6.00;;;;;;;;3544327;39;113306;-84
2021/07/19 03:50:53;;;;;;;;;9.50;8.00;;;;;;;;3543536;39;113942;-84
2021/07/19 03:53:20;;;;;;;;;7.50;6.75;;;;;;;;3544294;39;112457;-83
2021/07/19 03:55:48;;;;;;;;;11.00;9.00;;;;;;;;3544046;39;113405;-84
2021/07/19 03:58:15;;;;;;;;;9.75;9.75;;;;;;;;3543806;39;114632;-84
2021/07/19 04:00:42;;;;;;;;;9.50;9.50;;;;;;;;3544379;39;111823;-83
2021/07/19 04:03:16;;;;;;;;;12.00;10.33;;;;;;;;3546450;39;113503;-85
2021/07/19 04:05:45;;;;;;;;;12.00;9.75;;;;;;;;3542505;39;112335;-86
2021/07/19 04:08:13;;;;;;;;;11.50;11.00;;;;;;;;3542576;39;113428;-85
2021/07/19 04:10:40;;;;;;;;;9.50;8.75;;;;;;;;3541801;39;113851;-85
2021/07/19 04:13:07;;;;;;;;;10.00;9.00;;;;;;;;3544132;39;112000;-84
2021/07/19 04:15:34;;;;;;;;;8.00;8.00;;;;;;;;3544130;39;113515;-85
2021/07/19 04:18:01;;;;;;;;;10.00;10.00;;;;;;;;3543638;39;113853;-86
2021/07/19 04:20:27;;;;;;;;;10.00;10.00;;;;;;;;3544620;39;111879;-85
2021/07/19 04:22:56;;;;;;;;;10.00;10.00;;;;;;;;3544358;39;114652;-84
2021/07/19 04:25:23;;;;;;;;;9.67;9.67;;;;;;;;3546685;39;113980;-85
2021/07/19 04:27:49;;;;;;;;;9.67;7.33;;;;;;;;3543876;39;112766;-84
2021/07/19 04:30:16;;;;;;;;;10.33;10.33;;;;;;;;3543970;39;114147;-84
2021/07/19 04:32:44;;;;;;;;;7.67;7.67;;;;;;;;3544229;39;112043;-85
2021/07/19 04:35:18;;;;;;;;;10.00;10.00;;;;;;;;3542491;39;113300;-86
2021/07/19 04:37:45;;;;;;;;;11.00;10.00;;;;;;;;3541692;39;114006;-84
2021/07/19 04:40:13;;;;;;;;;9.00;9.00;;;;;;;;3543717;39;111875;-84
2021/07/19 04:42:40;;;;;;;;;8.67;8.67;;;;;;;;3541871;39;113384;-84
2021/07/19 04:45:07;;;;;;;;;10.00;10.00;;;;;;;;3543493;39;114348;-84
2021/07/19 04:47:33;;;;;;;;;10.33;8.67;;;;;;;;3546180;39;111953;-88
2021/07/19 04:50:00;;;;;;;;;9.67;9.00;;;;;;;;3543510;39;113949;-86
2021/07/19 04:52:27;;;;;;;;;9.00;8.33;;;;;;;;3544253;39;111753;-86
2021/07/19 04:54:54;;;;;;;;;12.67;11.00;;;;;;;;3542671;39;113437;-85
2021/07/19 04:57:23;;;;;;;;;11.00;10.00;;;;;;;;3544424;39;114018;-85
2021/07/19 04:59:51;;;;;;;;;10.33;10.00;;;;;;;;3544390;39;112003;-84
2021/07/19 05:02:19;;;;;;;;;10.33;10.33;;;;;;;;3546006;39;112256;-83
2021/07/19 05:04:47;;;;;;;;;10.00;9.33;;;;;;;;3548998;39;112890;-84
2021/07/19 05:07:16;;;;;;;;;9.67;9.33;;;;;;;;3542787;39;113146;-84
2021/07/19 05:09:43;;;;;;;;;10.33;9.33;;;;;;;;3545921;39;112869;-84
2021/07/19 05:12:11;;;;;;;;;11.00;11.00;;;;;;;;3541715;39;111707;-86
2021/07/19 05:14:40;;;;;;;;;13.33;12.00;;;;;;;;3543436;39;113274;-84
2021/07/19 05:17:10;;;;;;;;;11.33;8.67;;;;;;;;3542843;39;114268;-83
2021/07/19 05:19:37;;;;;;;;;9.33;8.67;;;;;;;;3543582;39;112061;-84
2021/07/19 05:22:08;;;;;;;;;13.00;11.33;;;;;;;;3543381;39;113547;-83
2021/07/19 05:24:34;;;;;;;;;10.67;9.33;;;;;;;;3542898;39;114029;-84
2021/07/19 05:27:01;;;;;;;;;9.00;7.67;;;;;;;;3543290;39;111780;-83
2021/07/19 05:29:28;;;;;;;;;12.00;10.00;;;;;;;;3543642;39;112351;-83
2021/07/19 05:31:55;;;;;;;;;10.00;10.00;;;;;;;;3545261;39;111796;-79
2021/07/19 05:34:22;;;;;;;;;9.67;9.67;;;;;;;;3543294;39;113283;-80
2021/07/19 05:36:49;;;;;;;;;10.00;9.67;;;;;;;;3542617;39;113896;-81
2021/07/19 05:39:15;;;;;;;;;10.67;9.67;;;;;;;;3543092;39;112258;-69
2021/07/19 05:41:42;;;;;;;;;7.33;6.67;;;;;;;;3543148;39;113289;-71
2021/07/19 05:44:10;;;;;;;;;9.67;9.67;;;;;;;;3540337;39;114017;-69
2021/07/19 05:46:37;;;;;;;;;7.67;7.67;;;;;;;;3542541;39;112226;-70
2021/07/19 05:49:05;;;;;;;;;10.00;8.00;;;;;;;;3542562;39;114004;-69
2021/07/19 05:51:32;;;;;;;;;9.00;9.00;;;;;;;;3545031;39;113846;-68
2021/07/19 05:54:00;;;;;;;;;10.00;10.00;;;;;;;;3540823;39;113267;-69
2021/07/19 05:56:26;;;;;;;;;8.33;7.67;;;;;;;;3542236;39;113752;-69
2021/07/19 05:58:53;;;;;;;;;8.33;7.67;;;;;;;;3542938;39;111955;-69
2021/07/19 06:01:20;;;;;;;;;9.00;8.00;;;;;;;;3544033;39;113233;-70
2021/07/19 06:03:46;;;;;;;;;8.00;8.00;;;;;;;;3545739;39;114056;-66
2021/07/19 06:06:14;;;;;;;;;9.33;8.33;;;;;;;;3547249;39;111741;-67
2021/07/19 06:08:41;;;;;;;;;8.67;8.67;;;;;;;;3544682;39;113790;-68
2021/07/19 06:11:07;;;;;;;;;9.33;8.00;;;;;;;;3543232;39;114099;-67
2021/07/19 06:13:34;;;;;;;;;11.33;10.33;;;;;;;;3546583;39;112112;-68
2021/07/19 06:16:01;;;;;;;;;8.00;8.00;;;;;;;;3543714;39;113849;-67
2021/07/19 06:18:27;;;;;;;;;9.00;9.00;;;;;;;;3540967;39;111888;-67
2021/07/19 06:20:54;;;;;;;;;6.67;6.67;;;;;;;;3544562;39;113266;-75
2021/07/19 06:23:22;;;;;;;;;8.67;6.00;;;;;;;;3543981;39;114139;-75
2021/07/19 06:25:48;;;;;;;;;8.33;8.00;;;;;;;;3544125;39;113149;-75
2021/07/19 06:28:15;;;;;;;;;9.33;8.00;;;;;;;;3544302;39;113154;-77
2021/07/19 06:30:41;;;;;;;;;9.00;9.00;;;;;;;;3543928;39;113879;-77
2021/07/19 06:33:08;;;;;;;;;7.33;7.33;;;;;;;;3543885;39;113495;-77
2021/07/19 06:35:35;;;;;;;;;8.67;8.67;;;;;;;;3544278;39;113574;-79
2021/07/19 06:38:02;;;;;;;;;7.00;7.00;;;;;;;;3543477;39;111767;-77
2021/07/19 06:40:30;;;;;;;;;9.00;9.00;;;;;;;;3542312;39;114053;-77
2021/07/19 06:42:56;;;;;;;;;7.00;7.00;;;;;;;;3543699;39;114405;-77
2021/07/19 06:45:23;;;;;;;;;8.67;7.00;;;;;;;;3544233;39;111900;-76
2021/07/19 06:47:50;;;;;;;;;9.33;9.33;;;;;;;;3544250;39;113430;-76
2021/07/19 06:50:17;;;;;;;;;11.00;10.00;;;;;;;;3543537;39;113458;-73
2021/07/19 06:52:44;;;;;;;;;9.33;9.33;;;;;;;;3544143;39;113228;-77
2021/07/19 06:55:11;;;;;;;;;9.00;8.33;;;;;;;;3544285;39;113457;-81
2021/07/19 06:57:40;;;;;;;;;8.00;7.00;;;;;;;;3546570;39;114381;-75
2021/07/19 07:00:07;;;;;;;;;10.00;8.67;;;;;;;;3543932;39;113595;-74
2021/07/19 07:02:33;;;;;;;;;10.00;8.67;;;;;;;;3543767;39;113904;-78
2021/07/19 07:05:00;;;;;;;;;7.33;7.33;;;;;;;;3544408;39;111810;-73
2021/07/19 07:07:26;;;;;;;;;13.33;9.00;;;;;;;;3543794;39;113253;-71
2021/07/19 07:09:53;;;;;;;;;10.00;8.33;;;;;;;;3543746;39;113913;-70
2021/07/19 07:12:20;;;;;;;;;11.33;10.00;;;;;;;;3544075;39;112332;-71
2021/07/19 07:14:48;;;;;;;;;17.33;11.67;;;;;;;;3543920;39;113188;-71
2021/07/19 07:17:14;;;;;;;;;12.00;10.00;;;;;;;;3543449;39;113887;-72
2021/07/19 07:19:41;;;;;;;;;12.00;9.33;;;;;;;;3547029;39;112790;-72
2021/07/19 07:22:08;;;;;;;;;10.00;9.00;;;;;;;;3541686;39;113005;-72
2021/07/19 07:24:40;;;;;;;;;10.67;10.00;;;;;;;;3544026;39;112600;-72
2021/07/19 07:27:07;;;;;;;;;9.67;9.67;;;;;;;;3544263;39;113464;-72
2021/07/19 07:29:33;;;;;;;;;9.00;9.00;;;;;;;;3543596;39;114033;-71
2021/07/19 07:32:01;;;;;;;;;10.00;8.00;;;;;;;;3542809;39;112119;-70
2021/07/19 07:34:28;;;;;;;;;10.00;10.00;;;;;;;;3543380;39;113259;-72
2021/07/19 07:36:54;;;;;;;;;12.00;9.00;;;;;;;;3543180;39;113937;-71
2021/07/19 07:39:21;;;;;;;;;11.00;10.33;;;;;;;;3545787;39;111952;-71
2021/07/19 07:41:47;;;;;;;;;10.67;9.00;;;;;;;;3541265;39;113893;-71
2021/07/19 07:44:14;;;;;;;;;9.00;7.67;;;;;;;;3543513;39;112084;-71
2021/07/19 07:46:41;;;;;;;;;9.00;9.00;;;;;;;;3541687;39;113227;-71
2021/07/19 07:49:09;;;;;;;;;10.33;9.00;;;;;;;;3541815;39;113903;-71
2021/07/19 07:51:36;;;;;;;;;8.33;7.67;;;;;;;;3540773;39;112444;-71
2021/07/19 07:54:03;;;;;;;;;8.67;8.33;;;;;;;;3543216;39;113235;-72
2021/07/19 07:56:29;;;;;;;;;10.33;7.67;;;;;;;;3542621;39;114024;-72
2021/07/19 07:58:56;;;;;;;;;9.00;9.00;;;;;;;;3543360;39;111839;-76
2021/07/19 08:01:23;;;;;;;;;7.33;7.33;;;;;;;;3545661;39;113245;-74
2021/07/19 08:03:50;;;;;;;;;9.00;9.00;;;;;;;;3543273;39;111790;-72
2021/07/19 08:06:18;;;;;;;;;9.00;8.00;;;;;;;;3543326;39;113297;-73
2021/07/19 08:08:44;;;;;;;;;8.75;8.00;;;;;;;;3542706;39;113822;-73
2021/07/19 08:11:11;;;;;;;;;7.00;7.00;;;;;;;;3542593;39;113359;-71
2021/07/19 08:13:38;;;;;;;;;6.00;6.00;;;;;;;;3541833;39;113331;-71
2021/07/19 08:16:04;;;;;;;;;7.00;7.00;;;;;;;;3544284;39;113950;-80
2021/07/19 08:18:32;;;;;;;;;9.25;8.00;;;;;;;;3546145;39;112174;-75
2021/07/19 08:20:58;;;;;;;;;8.50;8.50;;;;;;;;3541962;39;113315;-75
2021/07/19 08:23:26;;;;;;;;;11.50;9.00;;;;;;;;3548037;39;113971;-72
2021/07/19 08:25:53;;;;;;;;;13.25;11.00;;;;;;;;3543970;39;113330;-73
2021/07/19 08:28:19;;;;;;;;;12.50;8.50;;;;;;;;3543217;39;114046;-72
2021/07/19 08:30:46;;;;;;;;;13.00;12.00;;;;;;;;3543442;39;112123;-74
2021/07/19 08:33:12;;;;;;;;;11.25;8.75;;;;;;;;3543725;39;113825;-74
2021/07/19 08:35:39;;;;;;;;;13.50;9.75;;;;;;;;3541164;39;114484;-74
2021/07/19 08:38:06;;;;;;;;;13.50;11.25;;;;;;;;3543598;39;111883;-74
2021/07/19 08:40:34;;;;;;;;;13.00;10.75;;;;;;;;3543067;39;113420;-75
2021/07/19 08:43:03;;;;;;;;;8.00;6.75;;;;;;;;3543036;39;114363;-76
2021/07/19 08:45:30;;;;;;;;;7.00;7.00;;;;;;;;3545691;39;112412;-76
2021/07/19 08:47:56;;;;;;;;;8.50;8.50;;;;;;;;3543075;39;113890;-74
2021/07/19 08:50:24;;;;;;;;;8.75;8.75;;;;;;;;3543551;39;111876;-83
2021/07/19 08:52:52;;;;;;;;;9.75;8.75;;;;;;;;3543332;39;113290;-75
2021/07/19 08:55:19;;;;;;;;;5.75;5.75;;;;;;;;3540443;39;114569;-78
2021/07/19 08:57:49;;;;;;;;;9.00;8.00;;;;;;;;3541483;39;112042;-75
2021/07/19 09:00:16;;;;;;;;;8.00;8.00;;;;;;;;3541886;39;113734;-75
2021/07/19 09:02:43;;;;;;;;;7.00;6.00;;;;;;;;3542159;39;114520;-75
2021/07/19 09:05:10;;;;;;;;;7.50;7.50;;;;;;;;3540924;39;112317;-75
2021/07/19 09:07:37;;;;;;;;;8.75;8.00;;;;;;;;3545776;39;113587;-75
2021/07/19 09:10:04;;;;;;;;;7.75;6.00;;;;;;;;3542916;39;112757;-75
2021/07/19 09:12:32;;;;;;;;;9.50;9.50;;;;;;;;3543349;39;113573;-75
2021/07/19 09:15:00;;;;;;;;;10.25;9.50;;;;;;;;3542795;39;113466;-75
2021/07/19 09:17:27;;;;;;;;;8.75;7.75;;;;;;;;3543077;39;112065;-74
2021/07/19 09:19:54;;;;;;;;;7.75;7.75;;;;;;;;3543329;39;113447;-74
2021/07/19 09:22:26;;;;;;;;;8.00;8.00;;;;;;;;3541934;39;114143;-75
2021/07/19 09:24:52;;;;;;;;;8.00;6.75;;;;;;;;3541523;39;111929;-75
2021/07/19 09:27:21;;;;;;;;;7.75;7.75;;;;;;;;3539905;39;113235;-75
2021/07/19 09:29:47;;;;;;;;;9.25;8.50;;;;;;;;3543182;39;114265;-75
2021/07/19 09:32:15;;;;;;;;;8.25;8.25;;;;;;;;3539099;39;113398;-75
2021/07/19 09:34:42;;;;;;;;;8.75;8.00;;;;;;;;3541013;39;113788;-75
2021/07/19 09:37:10;;;;;;;;;8.00;8.00;;;;;;;;3542385;39;112018;-75
2021/07/19 09:39:40;;;;;;;;;6.00;6.00;;;;;;;;3543082;39;113448;-74
2021/07/19 09:42:08;;;;;;;;;6.50;6.50;;;;;;;;3543434;39;113835;-76
2021/07/19 09:44:35;;;;;;;;;7.00;6.50;;;;;;;;3544443;39;112047;-76
2021/07/19 09:47:02;;;;;;;;;6.25;6.25;;;;;;;;3544422;39;114052;-76
2021/07/19 09:49:31;;;;;;;;;6.50;6.50;;;;;;;;3541653;39;113897;-75
2021/07/19 09:51:58;;;;;;;;;7.00;6.50;;;;;;;;3544461;39;113478;-75
2021/07/19 09:54:32;;;;;;;;;7.50;6.25;;;;;;;;3539897;39;114567;-75
2021/07/19 09:57:00;;;;;;;;;8.00;7.00;;;;;;;;3544354;39;112004;-74
2021/07/19 09:59:26;;;;;;;;;8.25;7.00;;;;;;;;3544318;39;113268;-75
2021/07/19 10:01:53;;;;;;;;;7.50;7.50;;;;;;;;3543366;39;113992;-75
2021/07/19 10:04:20;;;;;;;;;7.75;7.00;;;;;;;;3540692;39;112285;-76
2021/07/19 10:06:49;;;;;;;;;7.00;7.00;;;;;;;;3540451;39;113350;-78
2021/07/19 10:09:16;;;;;;;;;9.50;8.25;;;;;;;;3544142;39;114201;-76
2021/07/19 10:11:46;;;;;;;;;8.00;8.00;;;;;;;;3545551;39;112067;-78
2021/07/19 10:14:12;;;;;;;;;8.00;7.25;;;;;;;;3541709;39;113981;-76
2021/07/19 10:16:40;;;;;;;;;7.25;6.25;;;;;;;;3544139;39;111953;-77
2021/07/19 10:19:07;;;;;;;;;8.50;8.00;;;;;;;;3544676;39;113769;-77
2021/07/19 10:21:34;;;;;;;;;7.75;7.75;;;;;;;;3543807;39;113952;-81
2021/07/19 10:24:03;;;;;;;;;6.25;6.25;;;;;;;;3544435;39;111984;-75
2021/07/19 10:26:30;;;;;;;;;8.75;8.75;;;;;;;;3544439;39;113074;-74
2021/07/19 10:28:57;;;;;;;;;8.00;8.00;;;;;;;;3541330;39;113954;-75
2021/07/19 10:31:24;;;;;;;;;7.25;7.25;;;;;;;;3544164;39;111885;-83
2021/07/19 10:33:51;;;;;;;;;7.75;7.00;;;;;;;;3546440;39;114482;-75
2021/07/19 10:36:21;;;;;;;;;11.00;10.00;;;;;;;;3543880;39;112167;-77
2021/07/19 10:38:49;;;;;;;;;7.75;7.00;;;;;;;;3543467;39;113595;-77
2021/07/19 10:41:22;;;;;;;;;7.75;6.50;;;;;;;;3544141;39;113784;-75
2021/07/19 10:43:58;;;;;;;;;8.25;7.75;;;;;;;;3543891;39;112172;-73
2021/07/19 10:46:26;;;;;;;;;7.75;7.75;;;;;;;;3544224;39;113267;-76
2021/07/19 10:49:02;;;;;;;;;8.50;8.00;;;;;;;;3543594;39;114625;-78
2021/07/19 10:51:38;;;;;;;;;7.00;7.00;;;;;;;;3544635;39;111981;-81
2021/07/19 10:54:11;;;;;;;;;8.00;8.00;;;;;;;;3544258;39;113351;-80
2021/07/19 10:56:39;;;;;;;;;7.00;6.75;;;;;;;;3546327;39;113984;-78
2021/07/19 10:59:06;;;;;;;;;10.00;9.00;;;;;;;;3543870;39;113318;-80
2021/07/19 11:03:23;;;;;;;;;8.00;7.25;;;;;;;;3571968;39;112705;-79
2021/07/19 11:05:51;;;;;;;;;7.75;7.75;;;;;;;;3565578;39;113909;-78
2021/07/19 11:08:23;;;;;;;;;7.67;7.67;;;;;;;;3567163;39;112341;-78
2021/07/19 11:10:49;;;;;;;;;7.00;7.00;;;;;;;;3566073;39;113863;-78
2021/07/19 11:13:29;;;;;;;;;9.33;9.33;;;;;;;;3566840;39;113871;-76
2021/07/19 11:15:56;;;;;;;;;7.00;7.00;;;;;;;;3509174;39;112234;-82
2021/07/19 11:18:26;;;;;;;;;8.33;7.67;;;;;;;;3536785;39;113276;-77
2021/07/19 11:20:53;;;;;;;;;7.67;7.33;;;;;;;;3535339;39;113753;-81
2021/07/19 11:23:27;;;;;;;;;12.00;10.00;;;;;;;;3539937;39;113334;-78
2021/07/19 11:25:54;;;;;;;;;12.67;10.00;;;;;;;;3535962;39;113942;-79
2021/07/19 11:28:21;;;;;;;;;8.67;8.67;;;;;;;;3537414;39;112221;-79
2021/07/19 11:31:04;;;;;;;;;9.33;8.33;;;;;;;;3535349;39;113558;-80
2021/07/19 11:33:33;;;;;;;;;8.00;8.00;;;;;;;;3536297;39;113887;-78
2021/07/19 11:35:59;;;;;;;;;10.00;10.00;;;;;;;;3536052;39;111829;-77
2021/07/19 11:38:35;;;;;;;;;9.33;8.00;;;;;;;;3536285;39;113620;-78
2021/07/19 11:41:12;;;;;;;;;9.67;9.33;;;;;;;;3534547;39;113874;-79
2021/07/19 11:43:40;;;;;;;;;9.67;8.00;;;;;;;;3536921;39;112350;-77
2021/07/19 11:46:06;;;;;;;;;7.67;7.33;;;;;;;;3529337;39;113358;-82
2021/07/19 11:48:34;;;;;;;;;8.00;8.00;;;;;;;;3520977;39;112011;-80
2021/07/19 11:51:01;;;;;;;;;8.00;8.00;;;;;;;;3542356;39;113638;-87
2021/07/19 11:53:28;;;;;;;;;9.00;9.00;;;;;;;;3541247;39;114418;-82
2021/07/19 11:55:55;;;;;;;;;10.00;7.67;;;;;;;;3540613;39;112036;-76
2021/07/19 11:58:21;;;;;;;;;8.00;6.00;;;;;;;;3541087;39;113226;-74
2021/07/19 12:00:48;;;;;;;;;11.33;11.00;;;;;;;;3540035;39;113908;-76
2021/07/19 12:03:15;;;;;;;;;12.67;12.67;;;;;;;;3540235;39;112237;-78
2021/07/19 12:05:50;;;;;;;;;11.00;9.67;;;;;;;;3540125;39;113342;-74
2021/07/19 12:08:16;;;;;;;;;10.00;10.00;;;;;;;;3540561;39;113942;-71
2021/07/19 12:10:43;;;;;;;;;11.00;11.00;;;;;;;;3540147;39;113342;-72
2021/07/19 12:13:11;;;;;;;;;11.33;10.67;;;;;;;;3536419;39;114852;-72
2021/07/19 12:15:38;;;;;;;;;11.67;10.67;;;;;;;;3530563;39;111928;-73
2021/07/19 12:18:04;;;;;;;;;10.33;10.00;;;;;;;;3531412;39;113441;-71
2021/07/19 12:20:34;;;;;;;;;11.00;10.00;;;;;;;;3533131;39;113848;-71
2021/07/19 12:23:02;;;;;;;;;7.00;7.00;;;;;;;;3532723;39;112122;-72
2021/07/19 12:25:29;;;;;;;;;9.00;9.00;;;;;;;;3533622;39;113403;-71
2021/07/19 12:27:59;;;;;;;;;10.67;9.33;;;;;;;;3533567;39;114045;-71
2021/07/19 12:30:26;;;;;;;;;9.33;9.33;;;;;;;;3535923;39;112452;-71
2021/07/19 12:32:53;;;;;;;;;10.00;9.00;;;;;;;;3533240;39;113945;-71
2021/07/19 12:35:23;;;;;;;;;10.33;10.33;;;;;;;;3530600;39;112389;-73
2021/07/19 12:37:53;;;;;;;;;11.00;10.67;;;;;;;;3532307;39;112246;-74
2021/07/19 12:40:22;;;;;;;;;13.00;11.00;;;;;;;;3531587;39;113833;-71
2021/07/19 12:42:51;;;;;;;;;8.33;8.00;;;;;;;;3532936;39;112042;-76
2021/07/19 12:45:17;;;;;;;;;8.00;8.00;;;;;;;;3529636;39;112280;-75
2021/07/19 12:47:45;;;;;;;;;9.67;8.67;;;;;;;;3532118;39;114175;-75
2021/07/19 12:50:13;;;;;;;;;8.00;7.33;;;;;;;;3532562;39;112391;-75
2021/07/19 12:52:40;;;;;;;;;9.00;9.00;;;;;;;;3533234;39;113928;-75
2021/07/19 12:55:08;;;;;;;;;8.00;8.00;;;;;;;;3533553;39;113803;-75
2021/07/19 12:57:37;;;;;;;;;10.67;9.00;;;;;;;;3532385;39;113449;-75
2021/07/19 13:00:07;;;;;;;;;10.67;9.00;;;;;;;;3533696;39;113963;-77
2021/07/19 13:02:34;;;;;;;;;7.33;7.33;;;;;;;;3533575;39;112998;-77
2021/07/19 13:05:06;;;;;;;;;14.33;13.00;;;;;;;;3533954;39;113237;-77
2021/07/19 13:07:33;;;;;;;;;9.33;9.33;;;;;;;;3533652;39;114231;-78
2021/07/19 13:10:00;;;;;;;;;11.00;11.00;;;;;;;;3533519;39;111962;-78
2021/07/19 13:12:27;;;;;;;;;13.00;10.67;;;;;;;;3534004;39;113708;-76
2021/07/19 13:14:59;;;;;;;;;9.00;7.33;;;;;;;;3535730;39;111927;-76
2021/07/19 13:17:27;;;;;;;;;7.67;7.67;;;;;;;;3533999;39;113341;-77
2021/07/19 13:19:55;;;;;;;;;10.67;9.33;;;;;;;;3532350;39;113893;-75
2021/07/19 13:22:26;;;;;;;;;9.00;7.67;;;;;;;;3533815;39;111838;-79
2021/07/19 13:24:53;;;;;;;;;11.00;9.67;;;;;;;;3533203;39;113622;-79
2021/07/19 13:27:20;;;;;;;;;13.00;10.00;;;;;;;;3532067;39;113935;-77
2021/07/19 13:29:50;;;;;;;;;12.33;11.67;;;;;;;;3533406;39;112338;-79
2021/07/19 13:32:20;;;;;;;;;8.00;8.00;;;;;;;;3533896;39;113298;-77
2021/07/19 13:34:55;;;;;;;;;8.33;8.33;;;;;;;;3535651;39;113901;-77
2021/07/19 13:37:22;;;;;;;;;9.00;9.00;;;;;;;;3534611;39;113225;-73
2021/07/19 13:39:48;;;;;;;;;10.67;7.00;;;;;;;;3532890;39;114267;-74
2021/07/19 13:42:15;;;;;;;;;14.33;14.33;;;;;;;;3533137;39;111875;-76
2021/07/19 13:44:43;;;;;;;;;29.25;25.00;;;;;;;;3533746;39;113255;-81
2021/07/19 13:47:10;;;;;;;;;20.00;19.67;;;;;;;;3531853;39;113857;-76
2021/07/19 13:49:38;;;;;;;;;12.00;11.00;;;;;;;;3532207;39;112230;-77
2021/07/19 13:52:05;;;;;;;;;8.00;8.00;;;;;;;;3531132;39;112284;-80
2021/07/19 13:54:31;;;;;;;;;58.50;47.00;;;;;;;;3532432;39;113820;-79
2021/07/19 13:57:00;;;;;;;;;38.67;29.33;;;;;;;;3535670;39;112540;-78
2021/07/19 13:59:27;;;;;;;;;58.75;47.00;;;;;;;;3532488;39;114207;-77
2021/07/19 14:01:54;;;;;;;;;40.00;31.75;;;;;;;;3533200;39;112325;-79
2021/07/19 14:04:20;;;;;;;;;61.50;48.75;;;;;;;;3532764;39;113366;-78
2021/07/19 14:06:48;;;;;;;;;27.67;25.67;;;;;;;;3532228;39;113984;-78
2021/07/19 14:09:15;;;;;;;;;141.33;124.00;;;;;;;;3532958;39;111890;-79
2021/07/19 14:11:41;;;;;;;;;19.33;17.67;;;;;;;;3532978;39;113185;-78
2021/07/19 14:14:08;;;;;;;;;8.00;8.00;;;;;;;;3532652;39;113851;-77
2021/07/19 14:16:35;;;;;;;;;9.67;8.00;;;;;;;;3530455;39;112007;-77
2021/07/19 14:19:04;;;;;;;;;39.75;31.75;;;;;;;;3534779;39;113738;-76
2021/07/19 14:21:30;;;;;;;;;13.33;11.00;;;;;;;;3532913;39;112561;-78
2021/07/19 14:23:58;;;;;;;;;8.00;8.00;;;;;;;;3533240;39;113129;-80
2021/07/19 14:26:25;;;;;;;;;60.75;46.50;;;;;;;;3533678;39;113883;-78
2021/07/19 14:28:52;;;;;;;;;61.75;47.25;;;;;;;;3533847;39;112260;-83